Estació municipal de St. Julià de Vilatorta (Osona, E.N.Guilleries-Savassona)

Consulta les dades en temps real de l'estació municipal de St. Julià de Vilatorta





Hora UTC 07:55
Temperatura 22.6 ºC
Subsòl 10 cm 23.6 ºC
Humitat 60.0 %
Pressió 1022.5 hPa
Pluja 0.0 mm
Velocitat vent 2.8 km/h
Direcció vent NW
Radiació solar 373.3 W/m²
Fuel 8.2 %

Webcam

Dades diàries 2026-09-05



Hora UTC (hivern +1h; estiu +2h)
Temperatura (ºC) Humitat (%) Pressió (hPa) Velocitat vent (km/h) Precipitació (mm) Fuel (%) Radiació solar (W/m²)
Hora UTC Aire Subsòl 10 cm Humitat Pressió Vel. Dir. Vel. Max Dir. Intent. màx 5 min. Fuel Rad. Sol.
00:05 20.7 16.4 78.3 1021.4 3.8 ESE 3.8 ESE 0.0 7.2 0.6
00:10 20.7 16.3 78.5 1021.4 3.8 ESE 5.4 ESE 0.0 7.3 0.4
00:15 20.6 16.1 78.5 1021.4 3.8 E 5.7 ESE 0.0 7.3 0.5
00:20 20.6 16.0 78.3 1021.4 3.7 ESE 5.9 ESE 0.0 7.3 0.4
00:25 20.4 15.9 79.2 1021.4 2.6 ESE 4.4 ESE 0.0 7.4 0.3
00:30 20.4 15.8 79.4 1021.4 2.2 SE 3.2 SE 0.0 7.4 0.4
00:35 20.3 15.7 79.5 1021.4 2.3 SE 3.9 SE 0.0 7.4 0.2
00:40 20.2 15.7 80.2 1021.4 1.4 ESE 2.8 ESE 0.0 7.5 0.4
00:45 20.1 15.5 80.2 1021.3 2.3 SE 3.1 SE 0.0 7.5 0.6
00:50 20.1 15.4 79.9 1021.3 2.3 ESE 3.1 SE 0.0 7.5 0.6
00:55 20.1 15.4 80.0 1021.3 2.5 SE 3.3 ESE 0.0 7.6 0.7
01:00 20.1 15.4 79.3 1021.2 3.5 ESE 5.6 ESE 0.0 7.6 0.7
01:05 19.9 15.5 80.3 1021.3 1.6 SE 4.6 ESE 0.0 7.6 0.2
01:10 19.8 15.4 80.1 1021.3 2.6 ESE 6.9 ESE 0.0 7.7 0.8
01:15 19.7 15.3 80.2 1021.3 2.1 SE 4.1 SE 0.0 7.7 0.9
01:20 19.7 15.2 79.9 1021.3 2.5 ESE 4.0 ESE 0.0 7.7 0.9
01:25 19.7 15.2 79.5 1021.3 2.3 ESE 4.6 ESE 0.0 7.8 0.9
01:30 19.6 15.1 80.0 1021.3 2.6 ESE 4.1 ESE 0.0 7.8 0.7
01:35 19.6 15.1 79.4 1021.3 2.4 SE 3.3 SE 0.0 7.8 0.7
01:40 19.7 15.0 78.7 1021.4 2.0 SE 2.9 ESE 0.0 7.8 0.9
01:45 19.6 15.0 78.9 1021.3 2.6 ESE 3.8 ESE 0.0 7.8 0.7
01:50 19.5 15.0 79.3 1021.3 2.6 ESE 4.2 ESE 0.0 7.9 0.8
01:55 19.4 15.0 79.8 1021.3 2.0 ESE 3.4 ESE 0.0 7.9 0.7
02:00 19.2 14.9 80.1 1021.4 2.6 ESE 4.0 ESE 0.0 7.9 0.7
02:05 19.1 14.9 80.4 1021.4 3.3 ESE 5.7 ESE 0.0 7.9 0.8
02:10 19.3 14.8 79.8 1021.4 3.6 ESE 5.5 E 0.0 8.0 0.9
02:15 19.3 14.9 79.2 1021.4 3.9 ESE 6.3 ESE 0.0 8.0 0.9
02:20 19.3 15.0 79.1 1021.3 3.6 ESE 5.8 ESE 0.0 8.0 0.6
02:25 19.3 14.9 79.1 1021.3 2.6 ESE 4.9 ESE 0.0 8.0 0.4
02:30 19.4 14.8 78.7 1021.2 2.2 ESE 4.0 ESE 0.0 8.0 0.7
02:35 19.3 14.8 79.1 1021.3 1.4 SE 2.5 ESE 0.0 8.1 0.4
02:40 19.2 14.7 79.8 1021.3 1.3 SSE 2.1 SE 0.0 8.1 0.5
02:45 19.0 14.7 80.2 1021.2 2.4 ESE 5.1 ESE 0.0 8.1 0.9
02:50 19.0 14.6 80.7 1021.3 1.9 SE 3.0 SE 0.0 8.1 0.7
02:55 19.0 14.6 80.3 1021.3 1.9 ESE 2.7 ESE 0.0 8.2 1.1
03:00 19.0 14.5 80.4 1021.3 2.1 SE 3.3 SSE 0.0 8.2 1.1
03:05 18.9 14.6 80.2 1021.3 1.6 SE 3.7 SSE 0.0 8.2 0.3
03:10 18.8 14.6 80.9 1021.3 2.1 SE 3.0 SE 0.0 8.2 0.3
03:15 18.8 14.6 80.8 1021.3 1.7 SE 2.9 SE 0.0 8.2 0.8
03:20 18.7 14.6 81.2 1021.3 0.9 SSE 1.8 SE 0.0 8.3 0.4
03:25 18.5 14.5 82.1 1021.3 1.3 SE 2.7 SE 0.0 8.3 0.3
03:30 18.4 14.4 82.3 1021.4 1.8 SE 3.0 SE 0.0 8.1 1.0
03:35 18.5 14.4 82.0 1021.4 1.4 ESE 2.0 ESE 0.0 8.4 0.9
03:40 18.5 14.3 81.7 1021.4 1.2 SE 1.9 SE 0.0 8.4 0.9
03:45 18.3 14.3 82.3 1021.4 2.0 SE 3.0 SE 0.0 8.3 0.3
03:50 18.1 14.4 83.1 1021.4 2.1 SE 2.9 SE 0.0 8.4 0.6
03:55 18.0 14.4 83.8 1021.3 2.0 SE 3.2 SE 0.0 8.5 0.7
04:00 18.0 14.3 83.8 1021.3 1.7 SE 3.1 SE 0.0 8.5 0.6
04:05 17.8 14.3 84.5 1021.3 1.6 SE 2.6 SE 0.0 8.5 0.5
04:10 17.8 14.2 84.8 1021.3 1.7 SSE 2.5 SE 0.0 8.5 0.7
04:15 17.7 14.2 84.6 1021.3 1.9 SE 3.0 SE 0.0 8.6 0.5
04:20 17.6 14.1 85.1 1021.3 1.7 ESE 3.0 SE 0.0 8.5 0.7
04:25 17.6 14.0 85.7 1021.3 2.0 SE 2.7 SE 0.0 8.6 0.8
04:30 17.6 14.0 84.9 1021.4 1.4 SE 2.6 ESE 0.0 8.6 0.5
04:35 17.6 14.0 85.1 1021.4 2.4 SE 3.3 SE 0.0 8.7 0.8
04:40 17.8 13.9 84.1 1021.4 1.8 ESE 2.6 SE 0.0 8.7 1.1
04:45 17.7 13.9 83.7 1021.5 1.8 SE 2.6 ESE 0.0 8.7 0.5
04:50 17.7 13.9 83.9 1021.5 1.5 ESE 2.6 E 0.0 8.6 0.9
04:55 17.6 13.9 83.7 1021.5 3.2 ESE 4.8 ESE 0.0 8.8 0.9
05:00 17.8 14.0 82.4 1021.5 2.7 SE 4.1 SE 0.0 8.8 1.0
05:05 17.9 14.0 81.3 1021.6 2.4 SE 4.3 SE 0.0 8.8 0.9
05:10 17.9 13.9 81.1 1021.6 1.9 ESE 2.7 ESE 0.0 8.8 1.2
05:15 17.9 13.8 81.6 1021.7 2.1 ESE 3.1 E 0.0 8.2 1.8
05:20 17.8 13.8 81.5 1021.7 2.4 SE 3.3 ESE 0.0 8.8 2.6
05:25 17.9 13.8 81.4 1021.7 2.9 ESE 4.1 E 0.0 8.8 3.9
05:30 17.8 13.9 81.9 1021.7 2.4 ESE 4.3 ESE 0.0 8.9 5.4
05:35 17.7 13.9 82.4 1021.6 2.4 ESE 3.3 ESE 0.0 8.9 9.2
05:40 17.8 14.1 81.9 1021.6 1.4 SE 2.4 ESE 0.0 8.9 14.3
05:45 17.8 14.2 82.1 1021.7 0.7 ESE 2.1 SE 0.0 8.9 18.6
05:50 17.7 14.3 82.7 1021.7 1.9 SE 3.0 SE 0.0 8.9 23.4
05:55 17.8 14.4 82.5 1021.8 1.5 ESE 2.7 SE 0.0 8.9 27.7
06:00 17.7 14.6 83.4 1021.8 1.1 E 1.4 E 0.0 9.0 31.8
06:05 17.7 14.7 83.7 1021.9 1.7 ESE 2.7 ESE 0.0 9.0 34.8
06:10 17.9 14.8 83.2 1021.8 2.4 ESE 4.0 E 0.0 9.0 38.3
06:15 17.9 15.0 83.1 1021.9 1.3 SE 2.2 ESE 0.0 9.0 40.6
06:20 18.0 15.2 83.5 1021.9 1.1 SE 2.5 S 0.0 9.0 41.2
06:25 18.1 15.4 83.2 1022.0 1.4 SSE 2.9 SE 0.0 9.0 46.8
06:30 18.1 15.7 82.4 1022.0 1.3 SSE 2.3 SE 0.0 9.0 58.0
06:35 18.2 16.0 82.6 1022.0 1.1 SSE 1.5 SSE 0.0 9.1 73.4
06:40 18.3 16.3 82.8 1022.1 1.3 WSW 2.9 WNW 0.0 9.1 113.2
06:45 18.5 16.7 82.2 1022.2 1.9 WNW 3.2 NW 0.0 9.1 142.2
06:50 19.0 17.0 79.7 1022.2 1.3 SE 2.5 SE 0.0 9.0 156.0
06:55 19.7 17.4 76.2 1022.2 1.2 S 2.3 ESE 0.0 9.0 184.2
07:00 20.0 17.6 74.1 1022.3 0.7 SSE 1.5 SSE 0.0 9.0 200.5
07:05 20.4 17.9 72.1 1022.3 1.0 NE 3.3 N 0.0 9.0 216.1
07:10 20.6 18.1 70.0 1022.3 1.6 NNW 3.9 N 0.0 8.9 232.5
07:15 20.9 18.3 69.0 1022.3 0.3 NNW 1.8 NNW 0.0 8.5 247.8
07:20 22.1 18.9 63.0 1022.3 0.3 ENE 1.5 ENE 0.0 8.8 262.4
07:25 22.8 19.7 61.4 1022.4 1.7 NW 4.0 NNW 0.0 8.1 279.1
07:30 22.2 20.5 60.9 1022.4 6.1 N 9.9 NNW 0.0 8.6 295.7
07:35 21.7 21.2 60.7 1022.5 7.1 N 9.6 N 0.0 8.5 311.9
07:40 21.8 22.0 61.9 1022.5 3.8 N 6.5 NNE 0.0 8.4 323.2
07:45 22.1 22.5 61.4 1022.5 3.9 N 8.0 NNE 0.0 8.4 340.0
07:50 22.1 23.1 60.3 1022.5 4.4 NNW 8.2 NNW 0.0 8.3 355.9
07:55 22.6 23.6 60.0 1022.5 2.8 NW 5.3 WNW 0.0 8.2 373.3
Màxima 22.8 23.6 85.7 1022.5 7.1 N 9.9 NNW 0.0 9.1 373.3
Mínima 17.6 13.8 60.0 1021.2 7.2
Total 0.0